Time;durP1;ratioP1;P1;durP2;ratioP2;P2;SDS_P1;SDS_P2;PMS_P1;PMS_P2;Temp;Humidity;BMP_temperature;BMP_pressure;BME280_temperature;BME280_humidity;BME280_pressure;Samples;Min_cycle;Max_cycle;Signal;HPM_P1;HPM_P2
2022/06/24 18:08:22;;;;;;;16.03;7.60;;;;;;;34.62;43.19;101014.09;4952609;23;20481;-68
2022/06/24 18:10:48;;;;;;;14.83;6.53;;;;;;;34.64;42.80;101009.25;4876412;29;20453;-68
2022/06/24 18:13:14;;;;;;;12.03;6.20;;;;;;;34.60;42.82;101017.06;4883434;29;20469;-68
2022/06/24 18:15:40;;;;;;;13.93;6.87;;;;;;;34.58;42.99;101015.75;4870883;29;20506;-68
2022/06/24 18:18:07;;;;;;;12.87;5.90;;;;;;;34.63;42.87;101010.34;4899054;29;20795;-68
2022/06/24 18:20:33;;;;;;;13.40;5.43;;;;;;;34.67;42.37;101012.16;4882944;29;20445;-69
2022/06/24 18:22:59;;;;;;;10.60;4.77;;;;;;;34.68;42.90;101012.97;4883504;29;20433;-67
2022/06/24 18:25:25;;;;;;;11.60;5.30;;;;;;;34.60;43.40;101024.34;4883513;29;20448;-67
2022/06/24 18:27:51;;;;;;;10.87;5.63;;;;;;;34.57;43.69;101033.81;4883459;29;20441;-67
2022/06/24 18:30:18;;;;;;;14.23;5.23;;;;;;;34.60;43.77;101032.44;4883524;29;20438;-67
2022/06/24 18:32:44;;;;;;;10.03;5.90;;;;;;;34.66;42.97;101031.31;4883468;29;20508;-67
2022/06/24 18:35:10;;;;;;;13.60;7.43;;;;;;;34.64;43.08;101034.28;4883348;29;20435;-67
2022/06/24 18:37:36;;;;;;;18.97;8.30;;;;;;;34.71;43.55;101040.16;4883239;29;20460;-66
2022/06/24 18:40:06;;;;;;;13.30;6.07;;;;;;;34.74;43.38;101033.41;4883253;29;20422;-67
2022/06/24 18:42:32;;;;;;;12.60;7.27;;;;;;;34.70;43.31;101041.25;4883353;29;20425;-67
2022/06/24 18:44:58;;;;;;;14.97;7.70;;;;;;;34.72;43.22;101031.00;4882994;29;20472;-68
2022/06/24 18:47:24;;;;;;;12.67;6.20;;;;;;;34.72;42.59;101036.38;4883122;29;20505;-68
2022/06/24 18:49:51;;;;;;;15.10;6.53;;;;;;;34.71;42.81;101029.41;4882948;29;20946;-70
2022/06/24 18:52:18;;;;;;;13.70;7.53;;;;;;;34.74;42.81;101030.72;4898199;29;20465;-67
2022/06/24 18:54:45;;;;;;;20.77;10.27;;;;;;;34.79;42.72;101038.75;4881731;29;20434;-67
2022/06/24 18:57:11;;;;;;;14.07;8.40;;;;;;;34.84;42.53;101037.94;4882267;29;20433;-67
2022/06/24 18:59:38;;;;;;;21.93;7.80;;;;;;;34.80;42.85;101034.19;4882221;29;20814;-68
2022/06/24 19:02:06;;;;;;;18.23;7.77;;;;;;;34.79;42.72;101046.06;4899133;29;20544;-67
2022/06/24 19:04:32;;;;;;;15.87;5.77;;;;;;;34.76;42.35;101058.22;4882679;29;20990;-67
2022/06/24 19:06:59;;;;;;;12.90;5.90;;;;;;;34.81;42.16;101060.06;4878386;29;20475;-67
2022/06/24 19:09:25;;;;;;;18.30;9.50;;;;;;;34.84;42.71;101065.69;4882677;29;20442;-68
2022/06/24 19:11:51;;;;;;;14.70;10.60;;;;;;;34.88;42.31;101049.78;4866788;29;20557;-67
2022/06/24 19:14:17;;;;;;;19.00;11.40;;;;;;;34.83;42.05;101057.88;4874434;29;20439;-68
2022/06/24 19:16:43;;;;;;;17.83;9.30;;;;;;;34.89;41.97;101046.00;4890642;29;20827;-67
2022/06/24 19:19:10;;;;;;;18.37;8.60;;;;;;;34.73;42.64;101047.97;4882122;29;20525;-68
2022/06/24 19:21:40;;;;;;;16.43;9.43;;;;;;;34.48;42.97;101040.84;4882173;29;20430;-68
2022/06/24 19:24:08;;;;;;;14.83;8.17;;;;;;;34.33;43.44;101039.03;4882512;29;20456;-67
2022/06/24 19:26:34;;;;;;;12.63;6.30;;;;;;;34.19;43.61;101038.81;4882226;29;20430;-67
2022/06/24 19:29:01;;;;;;;16.10;8.47;;;;;;;33.98;44.50;101036.47;4871121;29;20448;-67
2022/06/24 19:31:28;;;;;;;11.07;6.70;;;;;;;34.07;44.25;101032.09;4863182;29;20491;-68
2022/06/24 19:33:55;;;;;;;16.03;7.80;;;;;;;33.90;45.08;101035.13;4874550;29;20473;-67
2022/06/24 19:36:22;;;;;;;20.17;8.60;;;;;;;33.94;45.11;101028.94;4881217;29;20987;-66
2022/06/24 19:38:49;;;;;;;15.67;7.77;;;;;;;33.97;45.25;101034.84;4881223;29;20465;-67
2022/06/24 19:41:15;;;;;;;16.03;6.70;;;;;;;34.00;45.44;101018.16;4898700;29;20902;-67
2022/06/24 19:43:42;;;;;;;23.50;10.20;;;;;;;34.17;45.23;101024.00;4871939;29;20423;-68
2022/06/24 19:46:08;;;;;;;20.20;10.30;;;;;;;33.87;46.08;101028.38;4865575;29;20802;-67
2022/06/24 19:48:35;;;;;;;22.93;11.30;;;;;;;33.96;45.87;101031.38;4880410;29;20429;-68
2022/06/24 19:51:01;;;;;;;18.97;9.83;;;;;;;33.96;45.83;101031.38;4865879;29;20429;-67
2022/06/24 19:53:27;;;;;;;21.33;10.70;;;;;;;34.13;44.96;101028.31;4880916;29;20475;-68
2022/06/24 19:55:53;;;;;;;18.83;7.37;;;;;;;33.94;46.36;101039.69;4880997;29;20434;-67
2022/06/24 19:58:20;;;;;;;17.20;8.73;;;;;;;33.83;46.65;101037.28;4880617;29;20872;-68
2022/06/24 20:00:46;;;;;;;17.03;9.83;;;;;;;33.67;47.25;101031.13;4879317;29;20442;-67
2022/06/24 20:05:56;;;;;;;17.57;12.57;;;;;;;33.56;47.95;101026.84;4897694;29;20478;-67
2022/06/24 20:08:26;;;;;;;18.83;12.00;;;;;;;33.38;48.37;101025.50;4888626;29;20481;-67
2022/06/24 20:10:55;;;;;;;22.33;12.80;;;;;;;33.52;48.18;101036.56;4856925;29;20422;-67
2022/06/24 20:13:22;;;;;;;28.67;14.47;;;;;;;33.45;48.18;101033.31;4872884;29;20831;-67
2022/06/24 20:15:51;;;;;;;24.23;13.93;;;;;;;33.41;48.08;101030.38;4874452;29;20524;-68
2022/06/24 20:18:18;;;;;;;20.07;11.27;;;;;;;33.61;48.12;101040.28;4860666;29;20942;-67
2022/06/24 20:20:44;;;;;;;20.17;11.83;;;;;;;33.80;46.81;101044.00;4864558;29;20466;-67
2022/06/24 20:23:13;;;;;;;22.97;12.20;;;;;;;33.85;47.09;101054.78;4879387;29;20883;-67
2022/06/24 20:25:43;;;;;;;21.47;14.20;;;;;;;33.47;47.90;101058.06;4881606;29;20437;-67
2022/06/24 20:28:09;;;;;;;20.40;12.30;;;;;;;33.38;47.94;101060.44;4881650;29;20470;-67
2022/06/24 20:30:38;;;;;;;21.83;14.10;;;;;;;33.56;47.50;101059.94;4868846;29;20975;-67
2022/06/24 20:33:07;;;;;;;31.90;15.20;;;;;;;33.18;48.34;101069.31;4881429;29;20457;-67
2022/06/24 20:35:34;;;;;;;28.73;19.13;;;;;;;33.48;47.63;101068.56;4888819;29;20419;-67
2022/06/24 20:38:00;;;;;;;24.17;16.80;;;;;;;33.84;46.87;101069.31;4869500;29;20437;-69
2022/06/24 20:40:28;;;;;;;27.73;18.83;;;;;;;33.98;46.88;101069.56;4864673;29;20507;-67
2022/06/24 20:42:54;;;;;;;22.80;14.50;;;;;;;34.03;46.32;101080.31;4862760;29;20419;-67
2022/06/24 20:45:20;;;;;;;22.33;16.73;;;;;;;33.90;46.85;101078.19;4862655;29;20919;-67
2022/06/24 20:47:48;;;;;;;20.90;14.40;;;;;;;33.60;47.49;101076.34;4865312;29;20442;-67
2022/06/24 20:50:15;;;;;;;27.37;16.47;;;;;;;33.41;47.76;101076.91;4881140;29;20453;-67
2022/06/24 20:52:41;;;;;;;24.97;15.03;;;;;;;33.65;47.25;101071.75;4881154;29;20465;-67
2022/06/24 20:55:08;;;;;;;32.33;16.10;;;;;;;33.72;47.04;101082.25;4881058;29;20449;-68
2022/06/24 20:57:34;;;;;;;19.10;14.77;;;;;;;33.66;47.28;101086.03;4881135;29;20421;-67
2022/06/24 21:00:01;;;;;;;23.00;15.77;;;;;;;33.77;46.90;101084.13;4869060;29;20459;-67
2022/06/24 21:02:27;;;;;;;29.60;13.37;;;;;;;33.28;47.71;101090.03;4862434;29;20419;-67
2022/06/24 21:04:53;;;;;;;22.03;11.93;;;;;;;33.54;46.95;101093.56;4862475;29;20431;-68
2022/06/24 21:07:20;;;;;;;22.43;14.30;;;;;;;33.58;47.09;101095.44;4864646;29;20482;-67
2022/06/24 21:09:46;;;;;;;24.20;14.20;;;;;;;33.18;47.92;101098.91;4874980;29;20494;-68
2022/06/24 21:12:12;;;;;;;26.13;14.87;;;;;;;33.11;48.08;101098.34;4874596;29;20957;-67
2022/06/24 21:14:38;;;;;;;20.17;13.67;;;;;;;33.50;47.34;101109.41;4877804;29;20794;-69
2022/06/24 21:17:05;;;;;;;22.60;14.47;;;;;;;33.30;47.21;101099.44;4876639;29;20553;-69
2022/06/24 21:19:31;;;;;;;20.50;11.63;;;;;;;33.18;48.08;101101.59;4872360;29;20431;-67
2022/06/24 21:21:58;;;;;;;20.50;12.40;;;;;;;33.25;47.87;101096.75;4866460;29;20526;-67
2022/06/24 21:24:24;;;;;;;22.40;14.07;;;;;;;33.59;47.02;101091.69;4866744;29;20542;-67
2022/06/24 21:26:50;;;;;;;21.80;10.80;;;;;;;33.31;47.29;101084.13;4866218;29;20780;-67
2022/06/24 21:29:18;;;;;;;19.57;10.80;;;;;;;33.12;47.42;101089.22;4867573;29;20423;-67
2022/06/24 21:31:45;;;;;;;29.13;12.63;;;;;;;33.23;47.47;101092.72;4867451;29;20538;-67
2022/06/24 21:34:11;;;;;;;19.43;10.53;;;;;;;33.37;47.20;101091.91;4867306;29;20469;-67
2022/06/24 21:36:37;;;;;;;17.37;9.70;;;;;;;33.48;46.93;101097.34;4869091;29;20510;-67
2022/06/24 21:39:04;;;;;;;15.57;9.67;;;;;;;33.56;47.07;101104.84;4865578;29;20456;-67
2022/06/24 21:41:30;;;;;;;18.80;10.83;;;;;;;33.53;46.52;101111.59;4869429;29;20439;-67
2022/06/24 21:43:57;;;;;;;16.93;10.27;;;;;;;33.22;47.46;101113.44;4866657;29;20420;-67
2022/06/24 21:46:23;;;;;;;23.47;12.23;;;;;;;33.51;46.80;101116.41;4872114;29;20522;-67
2022/06/24 21:48:49;;;;;;;17.50;9.20;;;;;;;32.92;47.99;101122.25;4877697;29;20443;-68
2022/06/24 21:51:15;;;;;;;18.30;9.17;;;;;;;33.00;48.17;101123.59;4870304;29;20420;-67
2022/06/24 21:53:42;;;;;;;18.43;9.30;;;;;;;33.37;47.14;101124.19;4861292;29;20512;-68
2022/06/24 21:56:08;;;;;;;18.57;10.00;;;;;;;33.33;47.06;101125.81;4872579;29;20509;-67
2022/06/24 21:58:35;;;;;;;15.00;10.27;;;;;;;33.30;47.34;101128.22;4878903;29;21002;-67
2022/06/24 22:01:01;;;;;;;15.50;9.80;;;;;;;33.52;46.68;101128.81;4877383;29;20459;-67
2022/06/24 22:03:27;;;;;;;17.47;10.80;;;;;;;33.71;46.28;101131.75;4869904;29;20542;-68
2022/06/24 22:05:54;;;;;;;22.47;10.00;;;;;;;33.27;47.30;101145.69;4862743;29;20439;-70
2022/06/24 22:08:20;;;;;;;20.20;10.00;;;;;;;33.24;47.21;101148.91;4868194;29;20470;-68
2022/06/24 22:10:50;;;;;;;21.90;11.10;;;;;;;33.56;46.78;101150.56;4868406;29;20912;-68
2022/06/24 22:13:18;;;;;;;16.83;10.90;;;;;;;33.56;46.22;101158.66;4868432;29;20499;-69
2022/06/24 22:15:45;;;;;;;23.63;9.60;;;;;;;33.48;46.64;101170.75;4867078;29;20424;-68
2022/06/24 22:18:11;;;;;;;27.60;13.10;;;;;;;33.33;47.16;101176.06;4867073;29;20457;-68
2022/06/24 22:20:38;;;;;;;28.07;11.67;;;;;;;33.47;46.68;101179.09;4868655;29;20426;-69
2022/06/24 22:23:05;;;;;;;16.37;10.20;;;;;;;33.31;46.97;101178.22;4867141;29;20423;-69
2022/06/24 22:25:31;;;;;;;21.43;10.60;;;;;;;33.23;47.37;101186.81;4867072;29;20426;-69
2022/06/24 22:27:59;;;;;;;16.70;10.20;;;;;;;33.32;47.07;101186.00;4868331;29;20426;-69
2022/06/24 22:30:27;;;;;;;14.70;9.50;;;;;;;33.40;46.71;101185.53;4874188;29;20426;-71
2022/06/24 22:32:54;;;;;;;16.67;9.23;;;;;;;33.33;46.87;101184.13;4876691;29;20991;-71
2022/06/24 22:35:20;;;;;;;21.73;11.30;;;;;;;33.25;47.25;101182.78;4878668;29;20426;-71
2022/06/24 22:37:47;;;;;;;15.80;9.43;;;;;;;33.42;46.94;101178.00;4880504;29;20446;-69
2022/06/24 22:40:14;;;;;;;15.83;9.50;;;;;;;33.38;46.98;101179.56;4880410;29;20496;-69
2022/06/24 22:42:41;;;;;;;21.63;11.37;;;;;;;33.37;47.13;101171.78;4880449;29;20450;-69
2022/06/24 22:45:08;;;;;;;30.40;12.10;;;;;;;33.50;46.81;101173.16;4881832;29;20493;-71
2022/06/24 22:47:34;;;;;;;23.50;12.20;;;;;;;33.63;46.53;101173.44;4880315;29;20430;-71
2022/06/24 22:50:02;;;;;;;17.47;10.53;;;;;;;33.67;46.33;101173.72;4880187;29;20992;-69
2022/06/24 22:52:29;;;;;;;16.00;11.40;;;;;;;33.69;46.15;101166.97;4880200;29;20983;-69
2022/06/24 22:54:55;;;;;;;18.37;11.40;;;;;;;33.80;45.82;101169.69;4880103;29;20521;-69
2022/06/24 22:57:21;;;;;;;17.33;11.70;;;;;;;33.79;45.77;101166.19;4880056;29;20481;-70
2022/06/24 22:59:48;;;;;;;17.67;11.40;;;;;;;33.63;46.03;101172.63;4880113;29;20438;-70
2022/06/24 23:02:14;;;;;;;18.53;11.40;;;;;;;33.55;46.52;101160.53;4879913;29;20812;-70
2022/06/24 23:04:40;;;;;;;15.27;10.43;;;;;;;33.38;46.57;101158.06;4880058;29;20871;-70
2022/06/24 23:07:06;;;;;;;20.87;10.60;;;;;;;33.52;46.61;101168.34;4879760;29;20509;-70
2022/06/24 23:09:32;;;;;;;18.80;10.20;;;;;;;33.63;46.63;101170.75;4881659;29;20418;-70
2022/06/24 23:11:59;;;;;;;16.93;11.00;;;;;;;33.77;46.13;101171.03;4879879;29;20415;-69
2022/06/24 23:14:25;;;;;;;14.70;9.43;;;;;;;33.84;46.45;101170.75;4879767;29;21010;-69
2022/06/24 23:16:51;;;;;;;25.20;10.30;;;;;;;33.82;45.95;101162.13;4879719;29;20521;-70
2022/06/24 23:19:17;;;;;;;27.80;11.57;;;;;;;33.72;46.37;101165.66;4879755;29;20490;-69
2022/06/24 23:21:45;;;;;;;15.53;10.27;;;;;;;33.62;46.43;101153.00;4879574;29;20816;-69
2022/06/24 23:24:12;;;;;;;15.60;11.37;;;;;;;33.56;46.81;101150.56;4879634;29;20610;-68
2022/06/24 23:26:38;;;;;;;20.40;10.83;;;;;;;33.55;46.72;101149.78;4881241;29;20451;-68
2022/06/24 23:29:04;;;;;;;19.20;11.50;;;;;;;33.44;46.98;101144.66;4879440;29;20427;-69
2022/06/24 23:31:33;;;;;;;22.37;10.90;;;;;;;33.22;47.20;101139.50;4879456;29;20450;-71
2022/06/24 23:33:59;;;;;;;20.50;11.20;;;;;;;33.20;47.55;101141.63;4879384;29;20474;-70
2022/06/24 23:36:25;;;;;;;21.30;11.93;;;;;;;33.45;47.22;101130.94;4879383;29;20806;-71
2022/06/24 23:38:51;;;;;;;18.60;13.07;;;;;;;33.58;46.89;101121.53;4879264;29;20550;-70
2022/06/24 23:41:17;;;;;;;21.47;11.53;;;;;;;33.50;46.74;101122.88;4879380;29;20425;-70
2022/06/24 23:43:44;;;;;;;24.13;9.97;;;;;;;33.51;46.79;101126.38;4879320;29;20458;-70
2022/06/24 23:46:10;;;;;;;15.73;10.43;;;;;;;33.48;46.95;101127.72;4878350;29;20451;-70
2022/06/24 23:51:30;;;;;;;21.53;11.50;;;;;;;33.69;46.90;101115.84;4879244;29;20426;-70
2022/06/24 23:54:08;;;;;;;24.00;12.40;;;;;;;33.63;46.61;101110.75;4879100;29;20466;-70
2022/06/24 23:56:35;;;;;;;14.93;11.03;;;;;;;33.61;46.67;101121.00;4879121;29;20490;-70
2022/06/24 23:59:02;;;;;;;17.37;11.67;;;;;;;33.53;46.81;101116.97;4879050;29;20430;-69
